Main page
METAR-TAF:

METAR-TAF

Airports :

Pago Pago International Airport

Pago Pago, United States Minor Outlying Islands

latitude: 14-20S, longitude: 170-43W, elevation: 3 m

Current weather observation

The report was made 1 hour and 8 minutes ago, at 18:50 UTC
Wind 2 kt from variable directions
Temperature 27°C
Humidity 84%
Pressure 1014 hPa
Visibility: 19.3 km
Few clouds at a height of 1500 ft
Scattered clouds at a height of 11000 ft

METAR: NSTU 231850Z VRB02KT 12SM FEW015 SCT110 27/24 A2993 RMK SLP137 T02660239

Time: 08:58 (19:58 UTC)

Forecast

The report was made 2 hours and 32 minutes ago, at 17:26 UTC
Forecast valid from 23 at 18 UTC to 24 at 18 UTC
Wind 5 kt from variable directions
Visibility: 10 km
Few clouds at a height of 1900 ft
Scattered clouds at a height of 4000 ft
Broken clouds at a height of 10000 ft
showers in vicinity

TAF: NSTU 231726Z 2318/2418 VRB05KT P6SM VCSH FEW019 SCT040 BKN100

Weather observations and forecasts of more than 4000 airports (METAR and TAF reports).

The available stations are represented by yellow and red dots on the map.

Hover mouse over dot to see the name of the station.

Then click to see weather observations and forecasts.

To change the map : click on the green buttons with a black cross to zoom in, on the green button with a dash to zoom out, or on the green arrows for adjacent maps.


METAR-TAF: